Time;durP1;ratioP1;P1;durP2;ratioP2;P2;SDS_P1;SDS_P2;PMS_P1;PMS_P2;Temp;Humidity;BMP_temperature;BMP_pressure;BME280_temperature;BME280_humidity;BME280_pressure;Samples;Min_cycle;Max_cycle;Signal;HPM_P1;HPM_P2
2021/05/22 00:01:39;;;;;;;15.07;12.10;;;;;;;-150.07;52.20;63617.81;4877203;29;20056;-92
2021/05/22 00:04:06;;;;;;;12.90;10.15;;;;;;;-150.07;51.60;61922.31;4885902;29;20021;-90
2021/05/22 00:06:33;;;;;;;13.00;11.52;;;;;;;-150.07;51.11;62433.00;4887092;29;20040;-92
2021/05/22 00:09:04;;;;;;;15.33;11.30;;;;;;;-150.07;52.04;62198.59;4873709;29;20112;-87
2021/05/22 00:11:31;;;;;;;12.55;10.52;;;;;;;-150.07;50.64;62006.03;4890596;29;20287;-88
2021/05/22 00:13:58;;;;;;;21.25;11.27;;;;;;;-150.07;51.14;61805.13;4890555;29;20037;-90
2021/05/22 00:16:25;;;;;;;19.58;10.45;;;;;;;-150.07;51.24;62165.09;4889657;29;20045;-89
2021/05/22 00:18:52;;;;;;;19.05;10.90;;;;;;;-150.07;51.18;62248.81;4891825;29;20040;-87
2021/05/22 00:21:18;;;;;;;15.77;12.00;;;;;;;-150.07;51.78;62420.44;4894275;29;20069;-90
2021/05/22 00:23:45;;;;;;;14.73;11.90;;;;;;;-150.07;51.80;61955.81;4882589;29;20029;-90
2021/05/22 00:26:12;;;;;;;16.75;12.50;;;;;;;-150.07;51.21;62307.41;4883906;29;20447;-89
2021/05/22 00:28:39;;;;;;;25.17;13.93;;;;;;;-150.07;51.55;62020.69;4883106;29;20025;-90
2021/05/22 00:31:06;;;;;;;17.40;11.65;;;;;;;-150.07;50.88;62319.97;4882831;29;20119;-89
2021/05/22 00:33:33;;;;;;;18.92;11.60;;;;;;;-150.07;50.58;62129.50;4882703;29;20073;-89
2021/05/22 00:36:00;;;;;;;15.38;11.38;;;;;;;-150.07;51.47;62012.31;4883042;29;20028;-89
2021/05/22 00:38:27;;;;;;;14.98;11.52;;;;;;;-150.07;50.62;62033.25;4882741;29;20036;-90
2021/05/22 00:40:54;;;;;;;12.40;10.18;;;;;;;-150.07;50.46;62445.56;4883532;29;20096;-90
2021/05/22 00:43:21;;;;;;;14.38;10.15;;;;;;;-150.07;50.19;62499.97;4882971;29;20526;-90
2021/05/22 00:45:50;;;;;;;13.13;10.80;;;;;;;-150.07;49.19;62583.69;4883375;29;20025;-90
2021/05/22 00:48:19;;;;;;;10.05;8.82;;;;;;;-150.07;50.08;62435.09;4880235;29;20029;-89
2021/05/22 00:50:46;;;;;;;15.63;11.27;;;;;;;-150.07;49.69;62520.91;4895015;29;20017;-89
2021/05/22 00:53:13;;;;;;;11.82;9.75;;;;;;;-150.07;50.03;62617.19;4896792;29;20056;-90
2021/05/22 00:55:40;;;;;;;14.02;9.55;;;;;;;-150.07;50.05;62673.69;4887978;29;20033;-89
2021/05/22 00:58:07;;;;;;;13.73;10.27;;;;;;;-150.07;50.29;62296.94;4887024;29;20063;-91
2021/05/22 01:00:47;;;;;;;14.27;9.73;;;;;;;-150.07;51.20;62433.00;4888204;29;20132;-89
2021/05/22 01:03:20;;;;;;;15.35;9.55;;;;;;;-150.07;50.99;62110.69;4887714;29;20037;-89
2021/05/22 01:05:47;;;;;;;12.75;9.27;;;;;;;-150.07;51.29;62491.59;4888770;29;20093;-90
2021/05/22 01:08:23;;;;;;;19.67;10.55;;;;;;;-150.07;50.54;62525.09;4906304;29;20063;-89
2021/05/22 01:11:02;;;;;;;13.93;9.38;;;;;;;-150.07;50.05;62424.63;4886362;29;20060;-90
2021/05/22 01:13:35;;;;;;;15.57;10.05;;;;;;;-150.07;49.57;62374.38;4886325;29;20037;-88
2021/05/22 01:16:02;;;;;;;13.85;10.15;;;;;;;-150.07;48.92;62315.78;4886528;29;20040;-90
2021/05/22 01:18:31;;;;;;;12.30;10.10;;;;;;;-150.07;48.20;62523.00;4885016;29;20033;-90
2021/05/22 01:21:01;;;;;;;13.85;10.90;;;;;;;-150.07;49.00;62566.94;4889846;29;20032;-90
2021/05/22 01:23:40;;;;;;;10.63;9.50;;;;;;;-150.07;49.64;62439.28;4892557;29;20116;-89
2021/05/22 01:26:10;;;;;;;11.83;9.20;;;;;;;-150.07;50.58;62458.13;4883127;29;20037;-89
2021/05/22 01:28:38;;;;;;;13.10;9.77;;;;;;;-150.07;50.24;62183.94;4890576;29;20036;-89
2021/05/22 01:31:08;;;;;;;11.15;8.32;;;;;;;-150.07;50.33;62449.75;4887487;29;20486;-91
2021/05/22 01:33:35;;;;;;;12.30;8.70;;;;;;;-150.07;49.42;63500.59;4901145;29;20040;-89
2021/05/22 01:36:03;;;;;;;9.52;8.35;;;;;;;-150.07;47.84;62351.38;4901108;29;20031;-89
2021/05/22 01:38:29;;;;;;;13.25;6.78;;;;;;;-150.07;48.62;62924.88;4885860;29;20089;-89
2021/05/22 01:40:58;;;;;;;11.77;7.47;;;;;;;-150.07;49.08;62506.25;4886621;29;20119;-91
2021/05/22 01:43:25;;;;;;;11.45;7.40;;;;;;;-150.07;48.10;62389.03;4870255;29;20041;-92
2021/05/22 01:45:54;;;;;;;10.00;7.80;;;;;;;-150.07;47.72;62391.13;4891899;29;20467;-90
2021/05/22 01:48:26;;;;;;;10.70;6.50;;;;;;;-150.07;48.92;62131.59;4894412;29;20047;-91
2021/05/22 01:51:05;;;;;;;9.68;7.95;;;;;;;-150.07;48.57;63546.66;4901278;29;20027;-89
2021/05/22 01:53:33;;;;;;;8.43;6.38;;;;;;;-150.07;47.90;62177.66;4882187;29;20037;-91
2021/05/22 01:56:01;;;;;;;7.55;6.88;;;;;;;-150.07;48.51;62407.88;4878828;29;20497;-90
2021/05/22 01:58:28;;;;;;;18.35;8.18;;;;;;;-150.07;47.76;63398.00;4886388;29;20037;-89
2021/05/22 02:00:55;;;;;;;8.02;6.40;;;;;;;-150.07;47.77;62548.13;4886078;29;20475;-89
2021/05/22 02:03:34;;;;;;;9.80;6.57;;;;;;;-150.07;47.86;62667.41;4886373;29;20028;-90
2021/05/22 02:06:04;;;;;;;11.07;6.95;;;;;;;-150.07;48.13;62548.13;4886258;29;20035;-89
2021/05/22 02:08:35;;;;;;;7.85;7.05;;;;;;;-150.07;47.27;62778.38;4887034;29;20065;-89
2021/05/22 02:11:02;;;;;;;10.80;6.60;;;;;;;-150.07;47.97;63588.53;4886562;29;20064;-88
2021/05/22 02:13:29;;;;;;;8.95;6.72;;;;;;;-150.07;48.51;62449.75;4891884;29;20041;-90
2021/05/22 02:15:59;;;;;;;9.98;7.63;;;;;;;-150.07;48.30;62248.81;4892960;29;20028;-90
2021/05/22 02:18:28;;;;;;;7.68;6.55;;;;;;;-150.07;48.01;62638.13;4893242;29;20033;-90
2021/05/22 02:20:59;;;;;;;9.53;6.70;;;;;;;-150.07;47.39;62393.22;4907014;29;20055;-92
2021/05/22 02:23:27;;;;;;;7.72;5.82;;;;;;;-150.07;47.41;62663.22;4891925;29;20359;-91
2021/05/22 02:25:57;;;;;;;9.27;5.93;;;;;;;-150.07;47.72;62409.97;4887056;29;20136;-91
2021/05/22 02:28:29;;;;;;;12.23;7.60;;;;;;;-150.07;47.18;62493.69;4887065;29;20033;-91
2021/05/22 02:30:56;;;;;;;8.05;7.22;;;;;;;-150.07;48.01;62244.63;4886766;29;20276;-92
2021/05/22 02:33:24;;;;;;;10.18;6.95;;;;;;;-150.07;48.59;62022.78;4887877;29;20583;-89
2021/05/22 02:35:54;;;;;;;11.10;7.38;;;;;;;-150.07;48.18;62382.75;4884021;29;20036;-91
2021/05/22 02:38:35;;;;;;;9.23;7.57;;;;;;;-150.07;48.61;63190.75;4886773;29;20081;-92
2021/05/22 02:41:06;;;;;;;8.35;6.97;;;;;;;-150.07;49.07;62587.88;4886123;29;20172;-91
2021/05/22 02:43:35;;;;;;;8.70;7.55;;;;;;;-150.07;48.63;62328.34;4901759;29;20036;-91
2021/05/22 02:46:03;;;;;;;8.63;7.53;;;;;;;-150.07;48.51;62539.75;4896861;29;20412;-91
2021/05/22 02:48:36;;;;;;;12.93;7.97;;;;;;;-150.07;48.85;62604.63;4888150;29;20036;-91
2021/05/22 02:51:05;;;;;;;9.60;6.78;;;;;;;-150.07;48.21;62453.94;4887730;29;20021;-91
2021/05/22 02:53:35;;;;;;;10.35;6.03;;;;;;;-150.07;48.28;62244.63;4887879;29;20044;-91
2021/05/22 02:56:05;;;;;;;11.30;6.45;;;;;;;-150.07;48.46;62700.91;4885688;29;20025;-92
2021/05/22 02:58:36;;;;;;;10.30;6.30;;;;;;;-150.07;47.12;62671.59;4871021;29;20033;-91
2021/05/22 03:01:04;;;;;;;7.55;5.28;;;;;;;-150.07;47.20;63437.78;4880924;29;20097;-91
2021/05/22 03:03:32;;;;;;;15.48;7.45;;;;;;;-150.07;48.19;62437.19;4901320;29;20025;-91
2021/05/22 03:06:04;;;;;;;7.45;6.68;;;;;;;-150.07;47.78;62533.47;4891186;29;20064;-91
2021/05/22 03:08:41;;;;;;;10.88;6.93;;;;;;;-150.07;47.67;62512.53;4888329;29;20085;-91
2021/05/22 03:11:08;;;;;;;6.63;5.05;;;;;;;-150.07;47.72;61987.19;4890990;29;20028;-91
2021/05/22 03:13:35;;;;;;;7.00;5.03;;;;;;;-150.07;46.43;62537.66;4903742;29;20043;-90
2021/05/22 03:16:02;;;;;;;8.18;5.35;;;;;;;-150.07;46.83;61945.34;4895321;29;20029;-89
2021/05/22 03:18:29;;;;;;;6.53;4.50;;;;;;;-150.07;46.53;62491.59;4898817;29;20044;-91
2021/05/22 03:20:56;;;;;;;5.60;4.32;;;;;;;-150.07;46.73;63146.78;4901873;29;20032;-91
2021/05/22 03:23:23;;;;;;;6.65;5.07;;;;;;;-150.07;46.70;62098.13;4867905;29;20033;-91
2021/05/22 03:25:50;;;;;;;6.75;5.07;;;;;;;-150.07;47.21;62169.28;4867846;29;20037;-90
2021/05/22 03:28:17;;;;;;;6.40;4.22;;;;;;;-150.07;46.58;62502.06;4867957;29;20479;-91
2021/05/22 03:30:44;;;;;;;6.35;5.43;;;;;;;-150.07;47.25;62508.34;4872619;29;20123;-91
2021/05/22 03:33:11;;;;;;;6.45;5.85;;;;;;;-150.07;46.88;62022.78;4892140;29;20051;-92
2021/05/22 03:35:38;;;;;;;7.90;6.30;;;;;;;-150.07;47.59;63211.69;4890418;29;20091;-88
2021/05/22 03:38:05;;;;;;;10.77;6.55;;;;;;;-150.07;47.80;62443.47;4912355;29;20506;-89
2021/05/22 03:40:34;;;;;;;8.57;7.00;;;;;;;-150.07;47.86;62583.69;4897584;29;20029;-94
2021/05/22 03:43:01;;;;;;;;;;;;;;;-150.07;47.73;62527.19;4888472;29;20055;-89
2021/05/22 03:45:28;;;;;;;7.63;5.57;;;;;;;-150.07;47.15;62127.41;4880970;29;19927;-90
2021/05/22 03:47:55;;;;;;;6.18;5.30;;;;;;;-150.07;47.49;62546.03;4890542;29;20126;-89
2021/05/22 03:50:22;;;;;;;8.13;5.72;;;;;;;-150.07;47.60;62571.13;4892484;29;20047;-90
2021/05/22 03:52:51;;;;;;;9.60;4.45;;;;;;;-150.07;45.69;62602.53;4872163;29;20045;-89
2021/05/22 03:55:18;;;;;;;5.93;4.30;;;;;;;-150.07;45.47;62267.66;4866414;29;20037;-90
2021/05/22 03:57:45;;;;;;;6.53;4.63;;;;;;;-150.07;46.81;63622.03;4895739;29;20028;-89
2021/05/22 04:00:14;;;;;;;6.63;5.95;;;;;;;-150.07;47.53;62604.63;4903078;29;20028;-89
2021/05/22 04:02:44;;;;;;;7.65;5.53;;;;;;;-150.07;47.79;62192.31;4895385;29;20028;-88
2021/05/22 04:05:16;;;;;;;5.50;4.50;;;;;;;-150.07;46.41;62556.47;4898926;29;20024;-96
2021/05/22 04:07:45;;;;;;;5.72;4.45;;;;;;;-150.07;45.91;62395.31;4896274;29;20512;-91
2021/05/22 04:10:12;;;;;;;6.50;4.20;;;;;;;-150.07;44.70;63689.00;4899236;29;20036;-92
2021/05/22 04:12:39;;;;;;;5.22;4.13;;;;;;;-150.07;44.29;62393.22;4884761;29;20033;-89
2021/05/22 04:15:06;;;;;;;5.00;4.50;;;;;;;-150.07;45.76;62539.75;4883753;29;20506;-84
2021/05/22 04:17:33;;;;;;;6.72;5.25;;;;;;;-150.07;45.69;62043.72;4909854;29;20056;-87
2021/05/22 04:20:00;;;;;;;4.32;3.90;;;;;;;-150.07;46.12;62319.97;4878530;29;20033;-86
2021/05/22 04:22:27;;;;;;;4.28;3.88;;;;;;;-150.07;45.40;63655.50;4886686;29;20371;-94
2021/05/22 04:24:54;;;;;;;5.47;3.58;;;;;;;-150.07;45.79;62098.13;4899862;29;20028;-88
2021/05/22 04:27:21;;;;;;;5.00;3.65;;;;;;;-150.07;44.68;63337.28;4892549;29;20116;-86
2021/05/22 04:29:48;;;;;;;6.15;3.65;;;;;;;-150.07;44.62;62579.50;4888091;29;20031;-88
2021/05/22 04:32:14;;;;;;;8.45;3.45;;;;;;;-150.07;43.89;62246.72;4889096;29;20036;-87
2021/05/22 04:34:41;;;;;;;6.18;3.65;;;;;;;-150.07;43.40;62257.19;4897165;29;20024;-86
2021/05/22 04:37:08;;;;;;;6.20;4.03;;;;;;;-150.07;43.10;62303.22;4888522;29;20096;-91
2021/05/22 04:39:35;;;;;;;3.40;2.03;;;;;;;-150.07;42.74;63395.91;4898142;29;20091;-86
2021/05/22 04:42:02;;;;;;;2.95;2.60;;;;;;;-150.07;42.92;62403.69;4897298;29;20462;-90
2021/05/22 04:44:31;;;;;;;3.90;2.47;;;;;;;-150.07;41.80;62194.41;4905480;29;20511;-89
2021/05/22 04:46:58;;;;;;;5.72;3.85;;;;;;;-150.07;42.46;62506.25;4888867;29;20047;-86
2021/05/22 04:49:27;;;;;;;4.30;3.70;;;;;;;-150.07;42.58;62407.88;4885953;29;20486;-86
2021/05/22 04:51:57;;;;;;;4.00;2.35;;;;;;;-150.07;43.12;63693.19;4888144;29;20039;-87
2021/05/22 04:54:25;;;;;;;2.92;2.58;;;;;;;-150.07;43.58;62556.47;4897582;29;20097;-87
2021/05/22 04:56:52;;;;;;;6.03;3.97;;;;;;;-150.07;43.93;63253.56;4900077;29;20032;-86
2021/05/22 04:59:19;;;;;;;5.03;4.60;;;;;;;-150.07;44.41;62638.13;4879733;29;20041;-86
2021/05/22 05:01:46;;;;;;;4.35;2.95;;;;;;;-150.07;43.60;62202.75;4881701;29;20521;-85
2021/05/22 05:04:12;;;;;;;6.38;5.45;;;;;;;-150.07;45.35;62462.28;4890504;29;20024;-88
2021/05/22 05:06:40;;;;;;;5.45;3.65;;;;;;;-150.07;43.71;62326.25;4882488;29;20040;-86
2021/05/22 05:09:07;;;;;;;5.13;4.63;;;;;;;-150.07;44.19;62374.38;4887308;29;20070;-88
2021/05/22 05:11:34;;;;;;;5.50;3.88;;;;;;;-150.07;43.42;62596.25;4870118;29;20127;-86
2021/05/22 05:14:01;;;;;;;4.00;3.20;;;;;;;-150.07;42.88;62248.81;4886323;29;20065;-85
2021/05/22 05:16:28;;;;;;;5.97;4.25;;;;;;;-150.07;44.72;63136.31;4890907;29;20135;-85
2021/05/22 05:18:55;;;;;;;6.07;4.65;;;;;;;-150.07;45.44;62167.19;4895130;29;20024;-86
2021/05/22 05:21:22;;;;;;;6.63;5.25;;;;;;;-150.07;45.54;63540.38;4895010;29;20021;-85
2021/05/22 05:23:49;;;;;;;7.03;5.80;;;;;;;-150.07;45.08;62412.06;4895629;29;20124;-85
2021/05/22 05:26:16;;;;;;;5.45;4.35;;;;;;;-150.07;45.28;62529.28;4896869;29;20005;-86
2021/05/22 05:28:43;;;;;;;8.82;6.20;;;;;;;-150.07;46.15;61980.94;4885660;29;20111;-86
2021/05/22 05:31:10;;;;;;;6.50;5.80;;;;;;;-150.07;46.47;62363.94;4886982;29;20033;-90
2021/05/22 05:33:37;;;;;;;5.60;5.00;;;;;;;-150.07;46.05;62355.56;4904704;29;20036;-87
2021/05/22 05:36:04;;;;;;;6.90;6.05;;;;;;;-150.07;45.79;62317.88;4907928;29;20059;-86
2021/05/22 05:38:31;;;;;;;7.35;5.60;;;;;;;-150.07;45.72;61792.56;4898689;29;20052;-87
2021/05/22 05:41:00;;;;;;;8.43;5.38;;;;;;;-150.07;45.36;62472.75;4900125;29;20055;-88
2021/05/22 05:43:27;;;;;;;10.98;6.20;;;;;;;-150.07;46.24;62215.31;4912016;29;20039;-88
2021/05/22 05:45:54;;;;;;;11.80;6.38;;;;;;;-150.07;47.01;62010.22;4906874;29;20064;-85
2021/05/22 05:48:21;;;;;;;5.55;4.95;;;;;;;-150.07;45.76;62566.94;4892611;29;20080;-87
2021/05/22 05:50:47;;;;;;;5.32;4.85;;;;;;;-150.07;45.45;63760.19;4888484;29;20113;-88
2021/05/22 05:53:14;;;;;;;5.70;4.88;;;;;;;-150.07;44.63;62728.13;4899615;29;20040;-88
2021/05/22 05:55:41;;;;;;;5.90;5.03;;;;;;;-150.07;45.01;62089.75;4906052;29;20164;-86
2021/05/22 05:58:08;;;;;;;8.38;4.82;;;;;;;-150.07;45.73;62238.34;4875889;29;20076;-86
2021/05/22 06:00:35;;;;;;;6.55;5.82;;;;;;;-150.07;45.96;62110.69;4890205;29;20032;-88
2021/05/22 06:03:02;;;;;;;8.00;5.15;;;;;;;-150.07;46.32;62043.72;4898002;29;20029;-87
2021/05/22 06:05:30;;;;;;;5.65;4.82;;;;;;;-150.07;45.95;62449.75;4891817;29;20487;-88
2021/05/22 06:07:56;;;;;;;7.28;4.97;;;;;;;-150.07;46.01;62502.06;4888170;29;20025;-86
2021/05/22 06:10:23;;;;;;;6.45;5.13;;;;;;;-150.07;45.44;63804.16;4887462;29;20465;-86
2021/05/22 06:12:50;;;;;;;7.95;5.95;;;;;;;-150.07;45.46;62613.00;4889936;29;20452;-88
2021/05/22 06:17:44;;;;;;;6.50;4.45;;;;;;;-150.07;45.11;62713.47;4908252;29;20494;-87
2021/05/22 06:20:12;;;;;;;5.68;4.93;;;;;;;-150.07;44.80;63617.81;4890828;29;20454;-88
2021/05/22 06:22:40;;;;;;;4.30;3.90;;;;;;;-150.07;44.02;62807.66;4903331;29;20024;-87
2021/05/22 06:25:08;;;;;;;8.63;3.95;;;;;;;-150.07;44.55;62688.34;4892452;29;20033;-88
2021/05/22 06:27:35;;;;;;;9.25;3.65;;;;;;;-150.07;43.94;62474.84;4885451;29;20067;-88
2021/05/22 06:30:03;;;;;;;3.92;3.47;;;;;;;-150.07;43.76;62594.16;4885265;29;20064;-86
2021/05/22 06:32:30;;;;;;;5.93;4.00;;;;;;;-150.07;43.68;62307.41;4891656;29;20033;-86
2021/05/22 06:34:57;;;;;;;4.57;3.83;;;;;;;-150.07;43.79;63446.16;4886884;29;20020;-87
2021/05/22 06:37:25;;;;;;;5.45;4.10;;;;;;;-150.07;44.20;62899.78;4885740;29;20033;-86
2021/05/22 06:39:53;;;;;;;3.90;3.58;;;;;;;-150.07;44.06;62290.66;4889945;29;20035;-86
2021/05/22 06:42:20;;;;;;;6.90;4.90;;;;;;;-150.07;44.50;62359.75;4885138;29;20095;-86
2021/05/22 06:45:03;;;;;;;6.10;3.78;;;;;;;-150.07;43.81;62663.22;4881597;29;20033;-88
2021/05/22 06:47:30;;;;;;;4.32;3.83;;;;;;;-150.07;44.62;62265.56;4899651;29;20037;-87
2021/05/22 06:49:57;;;;;;;4.18;3.83;;;;;;;-150.07;43.91;63205.41;4887933;29;20379;-87
2021/05/22 06:52:24;;;;;;;11.48;4.40;;;;;;;-150.07;44.05;62520.91;4882191;29;20028;-87
2021/05/22 06:54:54;;;;;;;4.57;4.18;;;;;;;-150.07;43.39;61980.94;4897115;29;20123;-86
2021/05/22 06:57:20;;;;;;;;;;;;;;;-150.07;43.19;62523.00;4879258;29;20033;-87
2021/05/22 06:59:47;;;;;;;6.50;3.58;;;;;;;-150.07;44.03;62248.81;4865641;29;19946;-86
2021/05/22 07:02:14;;;;;;;4.80;4.40;;;;;;;-150.07;43.96;62286.47;4885155;29;20040;-86
2021/05/22 07:04:41;;;;;;;3.50;3.22;;;;;;;-150.07;45.18;62165.09;4899864;29;20514;-88
2021/05/22 07:07:08;;;;;;;4.28;3.05;;;;;;;-150.07;44.27;62127.41;4887886;29;20033;-85
2021/05/22 07:09:35;;;;;;;7.45;3.72;;;;;;;-150.07;44.59;61972.56;4885153;29;20524;-86
2021/05/22 07:12:01;;;;;;;4.95;4.03;;;;;;;-150.07;44.37;62165.09;4891393;29;20057;-87
2021/05/22 07:14:29;;;;;;;4.72;3.50;;;;;;;-150.07;43.52;62018.59;4902855;29;20036;-86
2021/05/22 07:16:58;;;;;;;4.10;3.70;;;;;;;-150.07;44.40;62558.56;4906976;29;20080;-85
2021/05/22 07:19:26;;;;;;;9.95;4.15;;;;;;;-150.07;44.62;62985.59;4914326;29;20115;-87
2021/05/22 07:21:54;;;;;;;6.75;4.65;;;;;;;-150.07;44.64;62470.66;4906474;29;20032;-84
2021/05/22 07:24:22;;;;;;;9.95;3.95;;;;;;;-150.07;44.60;63655.50;4906529;29;20025;-86
2021/05/22 07:26:50;;;;;;;7.03;3.83;;;;;;;-150.07;45.21;62186.03;4900477;29;20039;-86
2021/05/22 07:29:17;;;;;;;6.70;4.40;;;;;;;-150.07;44.82;62537.66;4885269;29;20483;-87
2021/05/22 07:31:44;;;;;;;5.20;4.70;;;;;;;-150.07;45.11;62104.41;4883219;29;20028;-87
2021/05/22 07:34:12;;;;;;;7.13;4.68;;;;;;;-150.07;45.76;62204.84;4886098;29;20033;-86
2021/05/22 07:36:40;;;;;;;6.47;5.88;;;;;;;-150.07;45.82;62395.31;4871425;29;20024;-86
2021/05/22 07:39:12;;;;;;;5.57;5.03;;;;;;;-150.07;46.61;63174.00;4884090;29;20035;-87
2021/05/22 07:41:40;;;;;;;7.32;5.97;;;;;;;-150.07;46.93;62466.47;4883851;29;20431;-86
2021/05/22 07:44:08;;;;;;;10.05;5.35;;;;;;;-150.07;47.95;61826.06;4899433;29;20040;-89
2021/05/22 07:46:35;;;;;;;11.52;5.93;;;;;;;-150.07;47.70;62370.19;4884890;29;20035;-91
2021/05/22 07:49:02;;;;;;;8.88;6.15;;;;;;;-150.07;47.64;62110.69;4900492;29;20039;-86
2021/05/22 07:51:29;;;;;;;8.25;6.40;;;;;;;-150.07;47.73;61847.00;4888015;29;20444;-85
2021/05/22 07:53:56;;;;;;;10.32;6.25;;;;;;;-150.07;46.86;62269.75;4894777;29;20064;-86
2021/05/22 07:56:23;;;;;;;10.27;6.60;;;;;;;-150.07;46.81;62512.53;4887366;29;20495;-86
2021/05/22 07:58:50;;;;;;;7.15;6.07;;;;;;;-150.07;46.98;62259.28;4884629;29;20056;-86
2021/05/22 08:01:17;;;;;;;8.13;7.22;;;;;;;-150.07;47.37;61775.84;4892445;29;20403;-86
2021/05/22 08:03:44;;;;;;;8.20;7.40;;;;;;;-150.07;46.78;62278.13;4889137;29;20036;-86
2021/05/22 08:06:11;;;;;;;8.55;7.53;;;;;;;-150.07;46.73;62006.03;4884220;29;20016;-86
2021/05/22 08:08:38;;;;;;;10.02;7.45;;;;;;;-150.07;47.27;62156.72;4883169;29;20087;-85
2021/05/22 08:11:05;;;;;;;13.77;6.82;;;;;;;-150.07;49.01;63153.06;4881198;29;20017;-87
2021/05/22 08:13:32;;;;;;;11.35;7.25;;;;;;;-150.07;48.97;63287.03;4892518;29;20490;-87
2021/05/22 08:15:59;;;;;;;8.73;7.63;;;;;;;-150.07;48.78;62255.09;4894785;29;20195;-87
2021/05/22 08:18:26;;;;;;;7.70;6.40;;;;;;;-150.07;49.34;61997.66;4899323;29;20035;-87
2021/05/22 08:20:53;;;;;;;10.43;7.45;;;;;;;-150.07;50.29;61968.38;4886441;29;20391;-87
2021/05/22 08:23:21;;;;;;;8.52;7.63;;;;;;;-150.07;51.04;61886.75;4895080;29;20032;-87
2021/05/22 08:25:48;;;;;;;11.40;9.68;;;;;;;-150.07;51.08;61667.00;4895661;29;20028;-85
2021/05/22 08:28:21;;;;;;;10.27;7.70;;;;;;;-150.07;51.24;62294.84;4880009;29;20043;-87
2021/05/22 08:30:49;;;;;;;10.25;8.93;;;;;;;-150.07;51.59;62186.03;4898128;29;20032;-87
2021/05/22 08:33:17;;;;;;;16.70;8.30;;;;;;;-150.07;52.29;61985.09;4887216;29;20035;-86
2021/05/22 08:35:44;;;;;;;11.05;9.35;;;;;;;-150.07;53.08;62079.28;4883622;29;20037;-87
2021/05/22 08:38:11;;;;;;;13.68;8.35;;;;;;;-150.07;53.60;61620.97;4899831;29;20020;-87
2021/05/22 08:40:38;;;;;;;12.48;8.68;;;;;;;-150.07;53.49;61608.41;4881355;29;20040;-85
2021/05/22 08:43:05;;;;;;;13.18;9.80;;;;;;;-150.07;53.91;61600.06;4892664;29;20103;-87
2021/05/22 08:45:32;;;;;;;10.52;8.75;;;;;;;-150.07;53.24;61608.41;4882526;29;20589;-87
2021/05/22 08:48:00;;;;;;;11.23;9.82;;;;;;;-150.07;53.32;62022.78;4891620;29;20462;-87
2021/05/22 08:50:27;;;;;;;10.40;8.63;;;;;;;-150.07;53.57;63014.91;4892800;29;20032;-85
2021/05/22 08:52:55;;;;;;;12.27;8.38;;;;;;;-150.07;53.03;61960.00;4881776;29;20410;-87
2021/05/22 08:55:25;;;;;;;10.90;9.25;;;;;;;-150.07;53.06;62165.09;4861787;29;20040;-86
2021/05/22 08:57:51;;;;;;;;;;;;;;;-150.07;52.02;62148.34;4861750;29;20017;-87
2021/05/22 09:00:22;;;;;;;13.68;9.93;;;;;;;-150.07;53.24;62935.34;4878193;29;19920;-87
2021/05/22 09:02:49;;;;;;;10.57;8.10;;;;;;;-150.07;53.34;62910.25;4875411;29;20395;-86
2021/05/22 09:05:21;;;;;;;11.85;10.57;;;;;;;-150.07;52.94;62165.09;4895201;29;20040;-86
2021/05/22 09:07:54;;;;;;;9.98;8.93;;;;;;;-150.07;52.97;62154.63;4895064;29;20440;-86
2021/05/22 09:10:28;;;;;;;11.63;8.88;;;;;;;-150.07;52.30;62175.56;4876617;29;20124;-87
2021/05/22 09:12:57;;;;;;;8.68;7.78;;;;;;;-150.07;51.84;61943.25;4876295;29;20036;-85
2021/05/22 09:15:31;;;;;;;10.70;9.30;;;;;;;-150.07;52.48;61558.19;4881706;29;20128;-86
2021/05/22 09:18:01;;;;;;;13.02;9.38;;;;;;;-150.07;52.42;62085.56;4875682;29;21215;-85
2021/05/22 09:20:29;;;;;;;;;;;;;;;-150.07;52.70;62052.09;4890580;29;20063;-86
2021/05/22 09:23:09;;;;;;;11.35;8.55;;;;;;;-150.07;53.65;62001.84;4883638;29;19928;-85
2021/05/22 09:25:38;;;;;;;12.70;9.90;;;;;;;-150.07;54.14;61466.13;4883224;29;20127;-85
2021/05/22 09:28:06;;;;;;;10.90;9.25;;;;;;;-150.07;53.55;63159.34;4880257;29;20091;-84
2021/05/22 09:30:36;;;;;;;12.45;9.57;;;;;;;-150.07;53.87;62098.13;4907522;29;20040;-86
2021/05/22 09:33:04;;;;;;;18.77;9.25;;;;;;;-150.07;52.78;61796.75;4911664;29;20028;-85
2021/05/22 09:35:31;;;;;;;16.30;9.90;;;;;;;-150.07;52.73;61455.66;4893295;29;20036;-85
2021/05/22 09:38:01;;;;;;;11.38;9.50;;;;;;;-150.07;53.04;61934.88;4895658;29;20060;-84
2021/05/22 09:40:33;;;;;;;13.45;9.38;;;;;;;-150.07;52.80;61949.53;4880789;29;20031;-85
2021/05/22 09:43:04;;;;;;;9.27;8.27;;;;;;;-150.07;53.37;61669.09;4886582;29;20068;-84
2021/05/22 09:45:38;;;;;;;12.93;9.00;;;;;;;-150.07;52.95;62100.22;4889219;29;20036;-85
2021/05/22 09:48:10;;;;;;;12.20;10.23;;;;;;;-150.07;53.98;61949.53;4890293;29;20059;-85
2021/05/22 09:50:40;;;;;;;10.30;9.30;;;;;;;-150.07;53.95;62010.22;4899874;29;20025;-84
2021/05/22 09:53:35;;;;;;;11.25;9.63;;;;;;;-150.07;54.22;61790.47;4887067;29;20037;-85
2021/05/22 09:56:20;;;;;;;9.23;8.35;;;;;;;-150.07;53.83;61692.13;4900360;29;20025;-84
2021/05/22 09:58:58;;;;;;;9.90;8.88;;;;;;;-150.07;54.51;62006.03;4899759;29;20040;-84
2021/05/22 10:01:30;;;;;;;14.38;10.25;;;;;;;-150.07;54.20;62872.56;4898625;29;20027;-84
2021/05/22 10:04:18;;;;;;;17.48;10.60;;;;;;;-150.07;53.61;63259.84;4886571;29;20017;-84
2021/05/22 10:06:45;;;;;;;13.75;10.55;;;;;;;-150.07;53.98;61646.09;4905216;29;20423;-85
2021/05/22 10:09:17;;;;;;;11.57;8.90;;;;;;;-150.07;54.04;61842.81;4884857;29;20139;-85
2021/05/22 10:12:05;;;;;;;11.40;9.88;;;;;;;-150.07;53.27;61976.75;4880757;29;20029;-85
2021/05/22 10:14:44;;;;;;;12.52;10.52;;;;;;;-150.07;52.83;61574.94;4895899;29;20410;-83
2021/05/22 10:17:13;;;;;;;15.52;11.48;;;;;;;-150.07;52.91;61876.28;4881677;29;20056;-84
2021/05/22 10:19:40;;;;;;;11.73;9.87;;;;;;;-150.07;53.19;61551.91;4902014;29;20032;-85
2021/05/22 10:22:08;;;;;;;16.45;11.25;;;;;;;-150.07;51.00;61821.88;4884132;29;20036;-86
2021/05/22 10:24:36;;;;;;;11.90;10.57;;;;;;;-150.07;51.26;61616.78;4885935;29;20033;-86
2021/05/22 10:27:03;;;;;;;15.30;10.80;;;;;;;-150.07;51.51;62026.97;4901063;29;20024;-87
2021/05/22 10:29:32;;;;;;;16.00;10.65;;;;;;;-150.07;51.80;61842.81;4886926;29;20036;-88
2021/05/22 10:31:59;;;;;;;13.27;11.88;;;;;;;-150.07;50.38;61897.22;4899424;29;20032;-87
2021/05/22 10:34:28;;;;;;;13.48;12.07;;;;;;;-150.07;50.58;62018.59;4896121;29;20040;-86
2021/05/22 10:36:57;;;;;;;13.02;11.10;;;;;;;-150.07;50.83;62014.41;4881052;29;20036;-86
2021/05/22 10:39:45;;;;;;;13.57;11.33;;;;;;;-150.07;51.07;62031.16;4887577;29;20123;-86
2021/05/22 10:42:24;;;;;;;14.30;11.57;;;;;;;-150.07;51.22;62050.00;4880334;29;20054;-86
2021/05/22 10:44:51;;;;;;;14.38;11.35;;;;;;;-150.07;51.37;61480.78;4893842;29;20039;-88
2021/05/22 10:47:20;;;;;;;13.43;10.65;;;;;;;-150.07;51.72;61767.47;4902427;29;20028;-89
2021/05/22 10:49:58;;;;;;;13.73;11.63;;;;;;;-150.07;51.44;62087.66;4899851;29;20039;-89
2021/05/22 10:52:29;;;;;;;12.48;9.85;;;;;;;-150.07;51.71;62062.53;4890691;29;20044;-89
2021/05/22 10:55:06;;;;;;;11.82;10.25;;;;;;;-150.07;51.82;61679.56;4895873;29;20029;-90
2021/05/22 10:57:56;;;;;;;12.88;10.70;;;;;;;-150.07;51.17;62127.41;4888399;29;20146;-90
2021/05/22 11:00:25;;;;;;;13.00;10.93;;;;;;;-150.07;51.01;62133.69;4865099;29;20048;-90
2021/05/22 11:03:09;;;;;;;14.43;12.93;;;;;;;-150.07;50.96;61834.44;4891646;29;20055;-89
2021/05/22 11:05:43;;;;;;;15.18;11.63;;;;;;;-150.07;51.04;62106.50;4878921;29;20074;-92
2021/05/22 11:08:13;;;;;;;13.75;11.18;;;;;;;-150.07;51.34;62102.31;4884002;29;20036;-92
2021/05/22 11:10:45;;;;;;;15.13;11.18;;;;;;;-150.07;51.62;61788.38;4876920;29;20037;-89
2021/05/22 11:13:21;;;;;;;10.98;9.80;;;;;;;-150.07;51.45;62135.78;4882959;29;20191;-90
2021/05/22 11:15:56;;;;;;;15.75;11.18;;;;;;;-150.07;50.99;63316.34;4903850;29;20120;-90
2021/05/22 11:18:25;;;;;;;12.07;10.65;;;;;;;-150.07;51.12;63236.81;4892352;29;20033;-91
2021/05/22 11:21:19;;;;;;;12.10;10.83;;;;;;;-150.07;50.97;62163.00;4884756;29;20028;-90
2021/05/22 11:23:59;;;;;;;13.43;11.50;;;;;;;-150.07;50.67;62152.53;4898992;29;20084;-90